Edson Airport
CYET : now visible

Airfield :











YOU CAN JOIN US ON...

 
LOGIN :

Register | Disclaimer

   EN    FR    IT 

 









Legend :    VFR   Marginal VFR   IFR   Intensive IFR   Very Intensive IFR
Visi :
Ceiling :
>= 8 km
>= 3000ft
5 to 8 km
1000 to 3000 ft
1500m to 5 km
500 to 1000 ft
800 to 1500m
200 to 500 ft
< 800m
< 200 ft
Symbols :   Thunderstorms  Fog  Heavy snow  Heavy precipitations  Wind > 20 kt






- Airport Elevation : 3041 ft
- IATA code : YET


CYET - Edson

CURRENT METAR :
  • 191700Z AUTO VRB02KT 9SM CLR 20/15 A2999 RMK SLP149 DENSITY ALT 4300FT

EXPIRED METARs :
  • 191600Z AUTO VRB02KT 9SM CLR 18/15 A3000 RMK SLP154 DENSITY ALT 4100FT
  • 191500Z AUTO 28004KT 9SM CLR 16/15 A3002 RMK SLP159 DENSITY ALT 3800FT

TAF N/A
CZEG FIR / North America



MET'MAP, your aeronautical weather chart ! - Copyright ORBIFLY December 2007 - Disclaimer

ORBIFLY MET'MAP TEAM :

Programming & Development : Alexandra Zaïnal
Original concept : Baudouin d'Aumeries
Technical & hardware support : Manuel Goepfert
Assistance : Marc-Olivier Méhu




SOURCES & CREDITS :

   NOAA       Earth
Advisory